createdAt,value
2022-08-22T00:00:39.312Z,74.55
2022-08-22T00:02:47.467Z,53.01
2022-08-22T00:02:53.532Z,59.01
2022-08-22T00:03:22.251Z,74.11
2022-08-22T00:05:59.946Z,74.53
2022-08-22T00:08:26.547Z,74.96
2022-08-22T00:11:31.842Z,75.28
2022-08-22T00:14:18.772Z,75.45
2022-08-22T00:16:54.630Z,75.26
2022-08-22T00:19:21.230Z,75.68
2022-08-22T00:21:59.776Z,75.95
2022-08-22T00:24:38.900Z,75.92
2022-08-22T00:27:12.449Z,76.72
2022-08-22T00:29:59.155Z,76.49
2022-08-22T00:32:47.130Z,76.46
2022-08-22T00:35:17.182Z,77.43
2022-08-22T00:38:26.830Z,77.36
2022-08-22T00:41:04.425Z,76.92
2022-08-22T00:43:53.100Z,76.61
2022-08-22T00:46:57.108Z,76.21
2022-08-22T00:50:12.743Z,77.46
2022-08-22T00:52:55.040Z,76.67
2022-08-22T00:55:50.603Z,76.88
2022-08-22T00:58:17.198Z,76.54
2022-08-22T01:00:51.870Z,76.70
2022-08-22T01:03:50.548Z,76.89
2022-08-22T01:06:41.255Z,77.00
2022-08-22T01:09:13.684Z,77.32
2022-08-22T01:12:13.790Z,77.18
2022-08-22T01:14:49.456Z,77.13
2022-08-22T01:17:45.044Z,76.57
2022-08-22T01:20:38.949Z,76.66
2022-08-22T01:23:36.385Z,77.17
2022-08-22T01:26:29.236Z,77.72
2022-08-22T01:29:33.338Z,77.76
2022-08-22T01:32:27.835Z,77.65
2022-08-22T01:35:17.434Z,77.25
2022-08-22T01:37:59.204Z,77.25
2022-08-22T01:40:53.860Z,77.91
2022-08-22T01:44:00.201Z,78.33
2022-08-22T01:46:42.803Z,78.21
2022-08-22T01:49:25.267Z,78.47
2022-08-22T01:52:19.875Z,78.71
2022-08-22T01:55:13.667Z,78.74
2022-08-22T01:57:56.054Z,78.93
2022-08-22T02:00:34.626Z,78.98
2022-08-22T02:03:25.665Z,79.40
2022-08-22T02:06:04.337Z,79.93
2022-08-22T02:09:03.049Z,79.53
2022-08-22T02:11:48.190Z,79.73
2022-08-22T02:14:37.849Z,79.62
2022-08-22T02:17:50.900Z,79.98
2022-08-22T02:20:41.075Z,80.30
2022-08-22T02:23:07.664Z,79.75
2022-08-22T02:25:49.028Z,79.92
2022-08-22T02:29:06.125Z,80.52
2022-08-22T02:31:51.380Z,80.95
2022-08-22T02:35:03.539Z,81.14
2022-08-22T02:37:35.532Z,80.85
2022-08-22T02:40:27.913Z,80.81
2022-08-22T02:43:03.614Z,80.37
2022-08-22T02:46:18.368Z,80.32
2022-08-22T02:49:03.808Z,80.50
2022-08-22T02:51:53.417Z,80.34
2022-08-22T02:54:42.725Z,80.30
2022-08-22T02:57:14.766Z,80.06
2022-08-22T03:00:32.073Z,80.37
2022-08-22T03:02:59.786Z,79.99
2022-08-22T03:05:38.582Z,80.32
2022-08-22T03:08:29.113Z,80.30
2022-08-22T03:11:07.240Z,80.55
2022-08-22T03:13:33.805Z,80.91
2022-08-22T03:16:10.408Z,81.65
2022-08-22T03:18:56.290Z,81.36
2022-08-22T03:21:49.734Z,81.08
2022-08-22T03:24:50.909Z,80.85
2022-08-22T03:27:48.306Z,81.08
2022-08-22T03:30:21.970Z,81.28
2022-08-22T03:32:52.541Z,81.69
2022-08-22T03:35:32.427Z,81.73
2022-08-22T03:38:18.193Z,82.01
2022-08-22T03:41:07.815Z,81.96
2022-08-22T03:43:52.823Z,82.04
2022-08-22T03:46:43.650Z,81.80
2022-08-22T03:49:41.254Z,81.30
2022-08-22T03:53:04.063Z,81.61
2022-08-22T03:55:43.918Z,81.88
2022-08-22T03:58:28.518Z,81.74
2022-08-22T04:01:29.628Z,81.66
2022-08-22T04:04:11.683Z,81.06
2022-08-22T04:06:50.664Z,81.49
2022-08-22T04:09:44.832Z,82.26
2022-08-22T04:12:34.453Z,82.27
2022-08-22T04:15:31.293Z,82.07
2022-08-22T04:18:19.336Z,82.59
2022-08-22T04:20:55.095Z,82.38
2022-08-22T04:23:36.987Z,82.71
2022-08-22T04:26:14.049Z,82.25
2022-08-22T04:28:51.682Z,82.29
2022-08-22T04:31:26.009Z,82.49
2022-08-22T04:34:00.576Z,82.74
2022-08-22T04:36:32.884Z,82.26
2022-08-22T04:39:14.759Z,82.32
2022-08-22T04:41:53.356Z,82.44
2022-08-22T04:44:28.336Z,81.59
2022-08-22T04:47:20.968Z,81.76
2022-08-22T04:49:54.762Z,81.86
2022-08-22T04:52:46.900Z,81.43
2022-08-22T04:55:39.386Z,81.79
2022-08-22T04:58:30.184Z,81.68
2022-08-22T05:01:33.031Z,81.61
2022-08-22T05:04:10.794Z,81.54
2022-08-22T05:06:40.174Z,81.37
2022-08-22T05:09:16.437Z,80.82
2022-08-22T05:11:46.394Z,81.08
2022-08-22T05:14:28.012Z,81.03
2022-08-22T05:16:57.698Z,80.80
2022-08-22T05:19:36.545Z,80.58
2022-08-22T05:22:15.117Z,80.68
2022-08-22T05:24:46.440Z,81.96
2022-08-22T05:27:20.234Z,82.07
2022-08-22T05:29:50.491Z,81.55
2022-08-22T05:32:25.914Z,81.61
2022-08-22T05:34:58.246Z,81.14
2022-08-22T05:37:48.245Z,81.17
2022-08-22T05:40:21.919Z,80.85
2022-08-22T05:42:49.127Z,80.14
2022-08-22T05:45:18.371Z,79.99
2022-08-22T05:47:50.322Z,80.15
2022-08-22T05:50:41.525Z,80.27
2022-08-22T05:53:18.186Z,80.10
2022-08-22T05:55:56.971Z,79.42
2022-08-22T05:58:38.857Z,79.56
2022-08-22T06:01:26.875Z,78.94
2022-08-22T06:04:31.549Z,78.64
2022-08-22T06:07:14.944Z,78.21
2022-08-22T06:09:47.644Z,77.68
2022-08-22T06:12:22.308Z,77.58
2022-08-22T06:15:10.494Z,77.36
2022-08-22T06:17:50.066Z,77.73
2022-08-22T06:20:22.074Z,77.34
2022-08-22T06:22:57.613Z,77.13
2022-08-22T06:25:33.417Z,76.79
2022-08-22T06:28:13.537Z,76.94
2022-08-22T06:30:40.821Z,77.10
2022-08-22T06:33:12.447Z,77.05
2022-08-22T06:36:03.429Z,77.46
2022-08-22T06:38:33.544Z,76.67
2022-08-22T06:41:07.815Z,76.92
2022-08-22T06:43:41.671Z,77.44
2022-08-22T06:46:11.125Z,77.99
2022-08-22T06:48:38.219Z,77.78
2022-08-22T06:51:08.317Z,77.42
2022-08-22T06:53:47.650Z,76.72
2022-08-22T06:56:23.246Z,76.52
2022-08-22T06:58:54.516Z,76.48
2022-08-22T07:01:26.063Z,76.61
2022-08-22T07:03:55.589Z,76.90
2022-08-22T07:06:50.301Z,76.64
2022-08-22T07:09:23.971Z,76.98
2022-08-22T07:11:52.364Z,77.37
2022-08-22T07:14:27.314Z,77.14
2022-08-22T07:16:56.517Z,77.06
2022-08-22T07:19:33.138Z,77.02
2022-08-22T07:22:12.135Z,77.40
2022-08-22T07:24:46.866Z,77.79
2022-08-22T07:27:23.303Z,77.53
2022-08-22T07:30:02.039Z,77.45
2022-08-22T07:32:54.046Z,77.32
2022-08-22T07:35:20.921Z,76.73
2022-08-22T07:38:04.757Z,76.24
2022-08-22T07:40:59.775Z,75.74
2022-08-22T07:43:33.365Z,75.66
2022-08-22T07:46:11.461Z,75.13
2022-08-22T07:49:08.503Z,74.96
2022-08-22T07:51:42.810Z,74.58
2022-08-22T07:54:13.190Z,74.58
2022-08-22T07:57:01.739Z,74.23
2022-08-22T07:59:31.483Z,74.19
2022-08-22T08:02:01.755Z,74.22
2022-08-22T08:04:40.076Z,74.37
2022-08-22T08:07:09.799Z,74.23
2022-08-22T08:09:49.941Z,74.15
2022-08-22T08:12:22.096Z,73.62
2022-08-22T08:14:55.785Z,73.24
2022-08-22T08:17:30.134Z,72.75
2022-08-22T08:20:04.065Z,72.65
2022-08-22T08:22:31.598Z,73.09
2022-08-22T08:25:00.400Z,73.29
2022-08-22T08:27:50.432Z,72.78
2022-08-22T08:30:22.840Z,72.92
2022-08-22T08:32:57.474Z,73.07
2022-08-22T08:36:02.540Z,71.96
2022-08-22T08:38:37.830Z,72.35
2022-08-22T08:41:20.839Z,72.32
2022-08-22T08:43:49.113Z,71.88
2022-08-22T08:46:55.674Z,69.71
2022-08-22T08:50:09.485Z,68.60
2022-08-22T08:53:31.300Z,68.08
2022-08-22T08:56:06.087Z,67.74
2022-08-22T08:59:09.997Z,67.74
2022-08-22T09:02:23.641Z,67.43
2022-08-22T09:05:12.653Z,67.40
2022-08-22T09:07:47.930Z,66.24
2022-08-22T09:10:31.433Z,66.23
2022-08-22T09:13:34.520Z,66.06
2022-08-22T09:16:32.197Z,65.77
2022-08-22T09:19:35.568Z,65.92
2022-08-22T09:22:51.665Z,64.84
2022-08-22T09:25:38.566Z,63.94
2022-08-22T09:28:18.818Z,62.28
2022-08-22T09:31:16.667Z,61.96
2022-08-22T09:34:30.717Z,59.41
2022-08-22T09:37:04.595Z,58.78
2022-08-22T09:40:01.405Z,58.67
2022-08-22T09:42:44.938Z,57.09
2022-08-22T09:45:25.039Z,55.36
2022-08-22T09:48:12.587Z,55.60
2022-08-22T09:50:48.408Z,54.93
2022-08-22T09:53:24.366Z,54.08
2022-08-22T09:56:15.316Z,53.15
2022-08-22T09:59:03.970Z,52.66
2022-08-22T10:01:46.668Z,53.92
2022-08-22T10:04:55.315Z,53.07
2022-08-22T10:07:37.041Z,49.17
2022-08-22T10:10:46.665Z,49.55
2022-08-22T10:13:40.166Z,48.66
2022-08-22T10:16:21.203Z,48.12
2022-08-22T10:19:10.938Z,48.64
2022-08-22T10:21:37.563Z,47.75
2022-08-22T10:24:30.797Z,48.59
2022-08-22T10:27:04.090Z,46.62
2022-08-22T10:29:51.459Z,46.20
2022-08-22T10:32:36.306Z,45.60
2022-08-22T10:35:19.957Z,46.04
2022-08-22T10:37:50.399Z,43.34
2022-08-22T10:40:26.157Z,43.73
2022-08-22T10:43:00.212Z,43.81
2022-08-22T10:45:37.299Z,43.56
2022-08-22T10:48:08.977Z,43.95
2022-08-22T10:50:47.776Z,43.14
2022-08-22T10:53:42.905Z,43.06
2022-08-22T10:56:16.058Z,42.72
2022-08-22T10:58:56.241Z,42.02
2022-08-22T11:01:37.553Z,41.96
2022-08-22T11:04:32.467Z,42.39
2022-08-22T11:07:09.998Z,42.11
2022-08-22T11:09:43.055Z,41.68
2022-08-22T11:12:23.434Z,41.71
2022-08-22T11:14:56.138Z,41.51
2022-08-22T11:17:58.066Z,40.66
2022-08-22T11:20:27.323Z,39.90
2022-08-22T11:23:44.880Z,40.51
2022-08-22T11:26:33.550Z,40.10
2022-08-22T11:29:14.485Z,40.47
2022-08-22T11:31:51.724Z,39.33
2022-08-22T11:34:31.189Z,39.09
2022-08-22T11:37:24.809Z,38.40
2022-08-22T11:40:30.369Z,38.80
2022-08-22T11:43:19.397Z,39.14
2022-08-22T11:45:51.497Z,38.74
2022-08-22T11:48:27.249Z,39.10
2022-08-22T11:51:13.080Z,38.66
2022-08-22T11:54:31.007Z,38.81
2022-08-22T11:57:16.228Z,37.05
2022-08-22T11:59:43.074Z,36.85
2022-08-22T12:02:28.641Z,36.43
2022-08-22T12:05:10.411Z,35.81
2022-08-22T12:07:56.127Z,36.08
2022-08-22T12:10:32.371Z,35.60
2022-08-22T12:13:38.167Z,35.35
2022-08-22T12:16:15.263Z,35.29
2022-08-22T12:19:14.500Z,35.74
2022-08-22T12:22:24.709Z,35.10
2022-08-22T12:25:38.543Z,35.26
2022-08-22T12:28:34.233Z,35.10
2022-08-22T12:31:06.787Z,35.64
2022-08-22T12:33:58.584Z,34.74
2022-08-22T12:37:03.361Z,34.99
2022-08-22T12:39:35.975Z,35.19
2022-08-22T12:42:46.062Z,35.31
2022-08-22T12:45:25.909Z,35.38
2022-08-22T12:48:10.203Z,34.83
2022-08-22T12:50:57.235Z,34.96
2022-08-22T12:53:44.736Z,34.30
2022-08-22T12:56:29.813Z,34.30
2022-08-22T12:59:20.023Z,34.26
2022-08-22T13:01:50.408Z,33.72
2022-08-22T13:04:33.467Z,33.99
2022-08-22T13:07:25.459Z,34.18
2022-08-22T13:10:03.577Z,33.98
2022-08-22T13:12:44.033Z,34.23
2022-08-22T13:15:46.225Z,34.13
2022-08-22T13:18:30.450Z,32.90
2022-08-22T13:20:58.578Z,33.06
2022-08-22T13:23:28.071Z,33.08
2022-08-22T13:26:07.738Z,32.81
2022-08-22T13:28:44.121Z,32.17
2022-08-22T13:31:20.828Z,31.90
2022-08-22T13:33:49.026Z,32.20
2022-08-22T13:36:20.239Z,32.07
2022-08-22T13:39:05.630Z,31.88
2022-08-22T13:41:44.351Z,32.27
2022-08-22T13:44:17.813Z,32.89
2022-08-22T13:47:13.145Z,32.76
2022-08-22T13:49:39.391Z,33.07
2022-08-22T13:52:30.457Z,32.85
2022-08-22T13:55:24.275Z,32.77
2022-08-22T13:58:01.158Z,32.02
2022-08-22T14:01:02.397Z,31.75
2022-08-22T14:03:38.770Z,31.81
2022-08-22T14:06:37.127Z,31.38
2022-08-22T14:09:27.913Z,31.69
2022-08-22T14:12:06.585Z,31.70
2022-08-22T14:14:41.224Z,31.83
2022-08-22T14:17:17.702Z,32.36
2022-08-22T14:19:52.828Z,32.44
2022-08-22T14:22:31.862Z,31.53
2022-08-22T14:25:09.148Z,31.73
2022-08-22T14:27:43.995Z,32.14
2022-08-22T14:30:26.312Z,32.23
2022-08-22T14:33:13.204Z,32.31
2022-08-22T14:35:52.752Z,32.67
2022-08-22T14:38:46.074Z,31.86
2022-08-22T14:41:26.634Z,32.16
2022-08-22T14:44:12.060Z,30.95
2022-08-22T14:46:52.878Z,30.70
2022-08-22T14:49:20.407Z,30.23
2022-08-22T14:51:59.337Z,30.13
2022-08-22T14:54:29.181Z,29.72
2022-08-22T14:56:58.209Z,30.14
2022-08-22T14:59:43.315Z,30.39
2022-08-22T15:02:31.599Z,30.10
2022-08-22T15:05:05.724Z,29.82
2022-08-22T15:07:35.034Z,29.47
2022-08-22T15:10:12.085Z,28.87
2022-08-22T15:12:46.658Z,30.19
2022-08-22T15:15:32.696Z,30.37
2022-08-22T15:18:28.172Z,30.58
2022-08-22T15:21:06.928Z,29.97
2022-08-22T15:23:45.151Z,28.88
2022-08-22T15:26:23.145Z,27.02
2022-08-22T15:29:26.767Z,26.77
2022-08-22T15:32:00.232Z,25.91
2022-08-22T15:34:54.982Z,26.20
2022-08-22T15:37:21.652Z,25.63
2022-08-22T15:40:11.645Z,25.55
2022-08-22T15:42:50.836Z,25.63
2022-08-22T15:45:30.218Z,25.70
2022-08-22T15:48:04.438Z,25.32
2022-08-22T15:51:02.665Z,25.42
2022-08-22T15:54:24.440Z,25.67
2022-08-22T15:57:10.212Z,25.55
2022-08-22T15:59:57.530Z,25.81
2022-08-22T16:02:27.773Z,25.74
2022-08-22T16:05:07.355Z,25.48
2022-08-22T16:08:10.861Z,25.94
2022-08-22T16:10:45.278Z,25.30
2022-08-22T16:13:21.173Z,25.43
2022-08-22T16:15:56.279Z,25.51
2022-08-22T16:18:42.659Z,25.75
2022-08-22T16:21:22.549Z,25.32
2022-08-22T16:23:56.483Z,25.07
2022-08-22T16:26:29.060Z,25.69
2022-08-22T16:29:17.285Z,25.67
2022-08-22T16:31:44.592Z,25.81
2022-08-22T16:34:17.442Z,25.75
2022-08-22T16:37:05.864Z,25.90
2022-08-22T16:39:32.577Z,25.61
2022-08-22T16:42:14.439Z,25.79
2022-08-22T16:44:54.280Z,25.91
2022-08-22T16:47:37.013Z,25.63
2022-08-22T16:50:23.897Z,25.69
2022-08-22T16:52:59.582Z,25.59
2022-08-22T16:55:29.083Z,25.47
2022-08-22T16:58:23.623Z,25.72
2022-08-22T17:01:22.600Z,25.52
2022-08-22T17:03:56.591Z,25.95
2022-08-22T17:06:47.979Z,25.87
2022-08-22T17:09:48.279Z,26.34
2022-08-22T17:12:47.293Z,26.01
2022-08-22T17:15:32.771Z,26.38
2022-08-22T17:18:21.950Z,26.30
2022-08-22T17:21:11.575Z,26.59
2022-08-22T17:23:55.748Z,27.43
2022-08-22T17:26:25.285Z,27.53
2022-08-22T17:29:02.420Z,27.87
2022-08-22T17:31:43.188Z,28.07
2022-08-22T17:34:39.484Z,28.27
2022-08-22T17:37:41.452Z,28.61
2022-08-22T17:40:29.671Z,29.13
2022-08-22T17:43:16.445Z,29.23
2022-08-22T17:45:45.773Z,29.90
2022-08-22T17:48:20.945Z,30.46
2022-08-22T17:50:57.104Z,31.32
2022-08-22T17:53:41.207Z,32.10
2022-08-22T17:56:07.911Z,32.70
2022-08-22T17:58:53.400Z,33.21
2022-08-22T18:01:37.621Z,34.06
2022-08-22T18:04:10.421Z,33.94
2022-08-22T18:06:44.269Z,34.33
2022-08-22T18:09:26.853Z,34.83
2022-08-22T18:12:04.644Z,34.99
2022-08-22T18:14:53.825Z,34.75
2022-08-22T18:17:30.028Z,35.36
2022-08-22T18:20:07.204Z,35.13
2022-08-22T18:22:47.437Z,35.68
2022-08-22T18:25:20.409Z,35.97
2022-08-22T18:28:06.470Z,36.42
2022-08-22T18:30:49.134Z,36.76
2022-08-22T18:33:32.910Z,36.79
2022-08-22T18:36:22.660Z,37.48
2022-08-22T18:39:18.990Z,37.57
2022-08-22T18:41:53.830Z,38.25
2022-08-22T18:44:30.186Z,38.68
2022-08-22T18:47:01.019Z,38.72
2022-08-22T18:49:27.662Z,38.80
2022-08-22T18:52:09.379Z,40.03
2022-08-22T18:55:03.032Z,39.52
2022-08-22T18:57:54.231Z,40.52
2022-08-22T19:00:46.286Z,40.58
2022-08-22T19:03:42.244Z,40.84
2022-08-22T19:06:15.601Z,41.07
2022-08-22T19:08:53.055Z,43.52
2022-08-22T19:11:35.121Z,41.27
2022-08-22T19:14:12.076Z,41.54
2022-08-22T19:16:57.064Z,41.81
2022-08-22T19:20:02.215Z,43.43
2022-08-22T19:22:34.136Z,43.24
2022-08-22T19:25:10.388Z,45.33
2022-08-22T19:27:44.671Z,45.47
2022-08-22T19:30:37.471Z,47.29
2022-08-22T19:33:08.753Z,46.48
2022-08-22T19:35:38.538Z,46.81
2022-08-22T19:38:07.789Z,46.82
2022-08-22T19:40:46.500Z,46.59
2022-08-22T19:43:30.795Z,47.15
2022-08-22T19:46:00.245Z,49.62
2022-08-22T19:48:44.481Z,47.75
2022-08-22T19:51:20.364Z,48.20
2022-08-22T19:54:01.955Z,49.55
2022-08-22T19:57:07.219Z,49.16
2022-08-22T19:59:51.106Z,49.78
2022-08-22T20:02:24.157Z,49.73
2022-08-22T20:05:12.820Z,50.43
2022-08-22T20:08:02.131Z,50.99
2022-08-22T20:10:58.933Z,51.12
2022-08-22T20:13:29.629Z,50.62
2022-08-22T20:16:16.476Z,51.04
2022-08-22T20:18:55.575Z,51.05
2022-08-22T20:21:44.135Z,51.20
2022-08-22T20:24:27.613Z,50.86
2022-08-22T20:27:13.444Z,51.72
2022-08-22T20:29:47.181Z,50.78
2022-08-22T20:32:16.698Z,51.75
2022-08-22T20:34:45.027Z,50.90
2022-08-22T20:37:32.242Z,50.75
2022-08-22T20:40:54.509Z,50.41
2022-08-22T20:43:34.131Z,50.75
2022-08-22T20:46:25.498Z,51.61
2022-08-22T20:48:55.722Z,51.99
2022-08-22T20:51:30.099Z,52.34
2022-08-22T20:54:10.385Z,52.63
2022-08-22T20:56:52.946Z,53.71
2022-08-22T20:59:35.691Z,53.80
2022-08-22T21:02:12.675Z,54.66
2022-08-22T21:04:46.683Z,55.05
2022-08-22T21:07:21.079Z,55.29
2022-08-22T21:10:35.040Z,55.45
2022-08-22T21:13:28.913Z,56.60
2022-08-22T21:15:59.856Z,56.55
2022-08-22T21:18:41.350Z,57.09
2022-08-22T21:21:17.237Z,56.63
2022-08-22T21:23:55.511Z,57.61
2022-08-22T21:26:27.415Z,56.66
2022-08-22T21:28:54.291Z,57.51
2022-08-22T21:31:24.016Z,57.37
2022-08-22T21:33:52.453Z,57.08
2022-08-22T21:36:23.675Z,58.34
2022-08-22T21:38:52.144Z,58.71
2022-08-22T21:41:49.792Z,59.05
2022-08-22T21:44:37.796Z,59.04
2022-08-22T21:47:17.141Z,59.40
2022-08-22T21:50:12.980Z,59.60
2022-08-22T21:52:59.761Z,60.28
2022-08-22T21:55:34.806Z,60.90
2022-08-22T21:58:35.607Z,61.39
2022-08-22T22:01:29.283Z,62.86
2022-08-22T22:03:58.935Z,62.28
2022-08-22T22:06:26.238Z,61.96
2022-08-22T22:08:52.933Z,62.88
2022-08-22T22:11:19.687Z,62.82
2022-08-22T22:13:46.614Z,63.32
2022-08-22T22:16:19.409Z,64.04
2022-08-22T22:18:46.103Z,65.12
2022-08-22T22:21:12.729Z,64.65
2022-08-22T22:23:39.365Z,64.25
2022-08-22T22:26:06.266Z,64.52
2022-08-22T22:28:47.496Z,65.22
2022-08-22T22:31:16.311Z,65.48
2022-08-22T22:33:43.419Z,65.51
2022-08-22T22:36:15.883Z,65.70
2022-08-22T22:38:42.621Z,65.54
2022-08-22T22:41:11.256Z,65.71
2022-08-22T22:43:37.900Z,66.34
2022-08-22T22:46:04.941Z,65.29
2022-08-22T22:48:32.283Z,66.26
2022-08-22T22:50:59.392Z,66.74
2022-08-22T22:53:33.865Z,66.69
2022-08-22T22:56:07.429Z,65.60
2022-08-22T22:58:36.649Z,66.46
2022-08-22T23:01:30.094Z,67.17
2022-08-22T23:03:59.572Z,67.43
2022-08-22T23:06:32.813Z,67.64
2022-08-22T23:08:59.498Z,66.96
2022-08-22T23:11:29.734Z,67.85
2022-08-22T23:13:56.556Z,68.36
2022-08-22T23:16:26.248Z,68.07
2022-08-22T23:18:52.979Z,68.94
2022-08-22T23:21:27.197Z,69.04
2022-08-22T23:23:55.974Z,69.25
2022-08-22T23:26:23.189Z,69.07
2022-08-22T23:28:49.981Z,69.38
2022-08-22T23:31:31.731Z,69.60
2022-08-22T23:34:05.835Z,69.94
2022-08-22T23:36:32.832Z,69.93
2022-08-22T23:38:59.832Z,70.57
2022-08-22T23:41:26.942Z,69.87
2022-08-22T23:43:54.928Z,70.25
2022-08-22T23:46:23.583Z,69.82
2022-08-22T23:48:50.325Z,70.30
2022-08-22T23:51:22.949Z,71.02
2022-08-22T23:53:50.694Z,70.91
2022-08-22T23:56:39.163Z,71.37
2022-08-22T23:59:09.390Z,71.66
